Terminal Aerodrome Forecast
Issued by NWS

Home | Current Version | Previous Version | Text Only | Print | Product List | Glossary On
Versions: 1 2 3 4 5 6 7 8 9 10 11 12 13 14 15 16 17 18 19 20 21 22
785
FTUS43 KDLH 112338
TAFHYR
TAF
KHYR 112338Z 1200/1224 24006KT P6SM BKN045 OVC060
     FM120300 27003KT P6SM BKN035 OVC050
     FM121000 30008KT P6SM SCT035
     FM121500 33010G17KT P6SM SCT250=

USA.gov is the U.S. government's official web portal to all federal, state and local government web resources and services.